sensor_id;sensor_type;location;lat;lon;timestamp;temperature;humidity
65876;HTU21D;52657;51.128;5.938;2023-01-05T00:00:02;14.75;64.88
65876;HTU21D;52657;51.128;5.938;2023-01-05T00:02:38;14.70;64.91
65876;HTU21D;52657;51.128;5.938;2023-01-05T00:05:04;14.65;64.94
65876;HTU21D;52657;51.128;5.938;2023-01-05T00:07:30;14.60;64.99
65876;HTU21D;52657;51.128;5.938;2023-01-05T00:09:55;14.58;65.15
65876;HTU21D;52657;51.128;5.938;2023-01-05T00:12:21;14.58;65.04
65876;HTU21D;52657;51.128;5.938;2023-01-05T00:15:07;14.58;65.04
65876;HTU21D;52657;51.128;5.938;2023-01-05T00:17:52;14.56;64.98
65876;HTU21D;52657;51.128;5.938;2023-01-05T00:20:36;14.56;65.00
65876;HTU21D;52657;51.128;5.938;2023-01-05T00:23:21;14.55;65.01
65876;HTU21D;52657;51.128;5.938;2023-01-05T00:25:49;14.58;65.11
65876;HTU21D;52657;51.128;5.938;2023-01-05T00:28:15;14.57;65.05
65876;HTU21D;52657;51.128;5.938;2023-01-05T00:30:44;14.55;65.14
65876;HTU21D;52657;51.128;5.938;2023-01-05T00:33:12;14.55;64.92
65876;HTU21D;52657;51.128;5.938;2023-01-05T00:35:38;14.54;64.92
65876;HTU21D;52657;51.128;5.938;2023-01-05T00:38:05;14.55;65.03
65876;HTU21D;52657;51.128;5.938;2023-01-05T00:40:31;14.56;65.07
65876;HTU21D;52657;51.128;5.938;2023-01-05T00:42:58;14.56;64.93
65876;HTU21D;52657;51.128;5.938;2023-01-05T00:45:24;14.53;64.98
65876;HTU21D;52657;51.128;5.938;2023-01-05T00:47:49;14.56;65.02
65876;HTU21D;52657;51.128;5.938;2023-01-05T00:50:17;14.57;65.11
65876;HTU21D;52657;51.128;5.938;2023-01-05T00:52:43;14.56;65.10
65876;HTU21D;52657;51.128;5.938;2023-01-05T00:55:09;14.57;65.02
65876;HTU21D;52657;51.128;5.938;2023-01-05T00:57:35;14.51;65.21
65876;HTU21D;52657;51.128;5.938;2023-01-05T01:00:03;14.50;65.45
65876;HTU21D;52657;51.128;5.938;2023-01-05T01:02:29;14.51;65.50
65876;HTU21D;52657;51.128;5.938;2023-01-05T01:04:55;14.50;65.50
65876;HTU21D;52657;51.128;5.938;2023-01-05T01:07:21;14.52;65.47
65876;HTU21D;52657;51.128;5.938;2023-01-05T01:09:47;14.53;65.40
65876;HTU21D;52657;51.128;5.938;2023-01-05T01:12:13;14.50;65.47
65876;HTU21D;52657;51.128;5.938;2023-01-05T01:14:39;14.47;65.58
65876;HTU21D;52657;51.128;5.938;2023-01-05T01:17:05;14.47;65.58
65876;HTU21D;52657;51.128;5.938;2023-01-05T01:19:31;14.45;65.60
65876;HTU21D;52657;51.128;5.938;2023-01-05T01:21:58;14.47;65.53
65876;HTU21D;52657;51.128;5.938;2023-01-05T01:24:26;14.43;65.69
65876;HTU21D;52657;51.128;5.938;2023-01-05T01:26:53;14.43;65.82
65876;HTU21D;52657;51.128;5.938;2023-01-05T01:29:20;14.42;65.76
65876;HTU21D;52657;51.128;5.938;2023-01-05T01:31:48;14.37;65.98
65876;HTU21D;52657;51.128;5.938;2023-01-05T01:34:14;14.34;66.13
65876;HTU21D;52657;51.128;5.938;2023-01-05T01:36:41;14.30;66.11
65876;HTU21D;52657;51.128;5.938;2023-01-05T01:39:07;14.21;66.32
65876;HTU21D;52657;51.128;5.938;2023-01-05T01:41:35;14.19;66.33
65876;HTU21D;52657;51.128;5.938;2023-01-05T01:47:09;14.10;66.49
65876;HTU21D;52657;51.128;5.938;2023-01-05T01:49:38;14.11;66.46
65876;HTU21D;52657;51.128;5.938;2023-01-05T01:52:05;14.08;66.50
65876;HTU21D;52657;51.128;5.938;2023-01-05T01:54:32;14.06;66.64
65876;HTU21D;52657;51.128;5.938;2023-01-05T01:56:57;14.01;66.72
65876;HTU21D;52657;51.128;5.938;2023-01-05T01:59:25;13.98;66.91
65876;HTU21D;52657;51.128;5.938;2023-01-05T02:01:59;13.93;67.14
65876;HTU21D;52657;51.128;5.938;2023-01-05T02:04:29;13.92;67.22
65876;HTU21D;52657;51.128;5.938;2023-01-05T02:06:56;13.89;67.37
65876;HTU21D;52657;51.128;5.938;2023-01-05T02:09:22;13.86;67.53
65876;HTU21D;52657;51.128;5.938;2023-01-05T02:11:55;13.92;67.52
65876;HTU21D;52657;51.128;5.938;2023-01-05T02:14:48;13.92;67.68
65876;HTU21D;52657;51.128;5.938;2023-01-05T02:17:42;13.93;67.74
65876;HTU21D;52657;51.128;5.938;2023-01-05T02:32:19;13.95;67.96
65876;HTU21D;52657;51.128;5.938;2023-01-05T02:40:54;14.00;67.93
65876;HTU21D;52657;51.128;5.938;2023-01-05T02:43:22;14.05;67.80
65876;HTU21D;52657;51.128;5.938;2023-01-05T02:45:49;14.00;68.01
65876;HTU21D;52657;51.128;5.938;2023-01-05T02:48:15;14.01;67.96
65876;HTU21D;52657;51.128;5.938;2023-01-05T02:53:19;14.03;67.97
65876;HTU21D;52657;51.128;5.938;2023-01-05T02:55:48;14.01;67.84
65876;HTU21D;52657;51.128;5.938;2023-01-05T02:58:32;14.00;67.97
65876;HTU21D;52657;51.128;5.938;2023-01-05T03:01:04;14.00;67.97
65876;HTU21D;52657;51.128;5.938;2023-01-05T03:03:38;14.00;67.88
65876;HTU21D;52657;51.128;5.938;2023-01-05T03:08:55;14.05;67.69
65876;HTU21D;52657;51.128;5.938;2023-01-05T03:11:43;14.01;67.65
65876;HTU21D;52657;51.128;5.938;2023-01-05T03:14:49;14.00;67.62
65876;HTU21D;52657;51.128;5.938;2023-01-05T03:17:33;13.99;67.72
65876;HTU21D;52657;51.128;5.938;2023-01-05T03:20:03;13.98;67.57
65876;HTU21D;52657;51.128;5.938;2023-01-05T03:22:30;14.00;67.70
65876;HTU21D;52657;51.128;5.938;2023-01-05T03:25:19;14.03;67.50
65876;HTU21D;52657;51.128;5.938;2023-01-05T03:28:13;14.05;67.43
65876;HTU21D;52657;51.128;5.938;2023-01-05T03:31:46;14.03;67.48
65876;HTU21D;52657;51.128;5.938;2023-01-05T03:34:41;14.01;67.43
65876;HTU21D;52657;51.128;5.938;2023-01-05T03:37:39;14.01;67.40
65876;HTU21D;52657;51.128;5.938;2023-01-05T03:40:16;13.99;67.36
65876;HTU21D;52657;51.128;5.938;2023-01-05T03:42:44;14.00;67.30
65876;HTU21D;52657;51.128;5.938;2023-01-05T03:45:12;13.99;67.43
65876;HTU21D;52657;51.128;5.938;2023-01-05T03:47:40;13.99;67.39
65876;HTU21D;52657;51.128;5.938;2023-01-05T03:50:07;14.00;67.39
65876;HTU21D;52657;51.128;5.938;2023-01-05T03:52:32;14.06;67.25
65876;HTU21D;52657;51.128;5.938;2023-01-05T03:54:59;14.08;67.19
65876;HTU21D;52657;51.128;5.938;2023-01-05T03:57:25;14.10;67.27
65876;HTU21D;52657;51.128;5.938;2023-01-05T03:59:51;14.09;67.90
65876;HTU21D;52657;51.128;5.938;2023-01-05T04:02:17;14.05;68.35
65876;HTU21D;52657;51.128;5.938;2023-01-05T04:04:43;14.00;68.66
65876;HTU21D;52657;51.128;5.938;2023-01-05T04:07:09;13.97;68.93
65876;HTU21D;52657;51.128;5.938;2023-01-05T04:09:35;13.97;69.11
65876;HTU21D;52657;51.128;5.938;2023-01-05T04:12:01;13.97;69.05
65876;HTU21D;52657;51.128;5.938;2023-01-05T04:14:31;13.90;69.10
65876;HTU21D;52657;51.128;5.938;2023-01-05T04:16:58;13.82;69.34
65876;HTU21D;52657;51.128;5.938;2023-01-05T04:19:24;13.80;69.50
65876;HTU21D;52657;51.128;5.938;2023-01-05T04:21:52;13.84;69.55
65876;HTU21D;52657;51.128;5.938;2023-01-05T04:24:19;13.84;69.39
65876;HTU21D;52657;51.128;5.938;2023-01-05T04:26:46;13.84;69.40
65876;HTU21D;52657;51.128;5.938;2023-01-05T04:29:12;13.85;69.36
65876;HTU21D;52657;51.128;5.938;2023-01-05T04:31:39;13.86;69.33
65876;HTU21D;52657;51.128;5.938;2023-01-05T04:34:06;13.85;69.33
65876;HTU21D;52657;51.128;5.938;2023-01-05T04:36:35;13.83;69.26
65876;HTU21D;52657;51.128;5.938;2023-01-05T04:39:01;13.82;69.33
65876;HTU21D;52657;51.128;5.938;2023-01-05T04:41:29;13.80;69.50
65876;HTU21D;52657;51.128;5.938;2023-01-05T04:43:55;13.78;69.49
65876;HTU21D;52657;51.128;5.938;2023-01-05T04:46:22;13.81;69.53
65876;HTU21D;52657;51.128;5.938;2023-01-05T04:48:49;13.84;69.44
65876;HTU21D;52657;51.128;5.938;2023-01-05T04:51:17;13.82;69.46
65876;HTU21D;52657;51.128;5.938;2023-01-05T04:53:43;13.85;69.52
65876;HTU21D;52657;51.128;5.938;2023-01-05T04:56:13;13.85;69.45
65876;HTU21D;52657;51.128;5.938;2023-01-05T04:58:42;13.86;69.43
65876;HTU21D;52657;51.128;5.938;2023-01-05T05:01:10;13.84;69.41
65876;HTU21D;52657;51.128;5.938;2023-01-05T05:03:37;13.81;69.43
65876;HTU21D;52657;51.128;5.938;2023-01-05T05:06:06;13.81;69.54
65876;HTU21D;52657;51.128;5.938;2023-01-05T05:08:32;13.81;69.56
65876;HTU21D;52657;51.128;5.938;2023-01-05T05:10:59;13.80;69.62
65876;HTU21D;52657;51.128;5.938;2023-01-05T05:13:27;13.79;69.80
65876;HTU21D;52657;51.128;5.938;2023-01-05T05:15:53;13.79;69.76
65876;HTU21D;52657;51.128;5.938;2023-01-05T05:18:19;13.78;69.75
65876;HTU21D;52657;51.128;5.938;2023-01-05T05:20:51;13.79;69.84
65876;HTU21D;52657;51.128;5.938;2023-01-05T05:23:18;13.78;69.77
65876;HTU21D;52657;51.128;5.938;2023-01-05T05:25:44;13.81;69.79
65876;HTU21D;52657;51.128;5.938;2023-01-05T05:28:10;13.84;69.64
65876;HTU21D;52657;51.128;5.938;2023-01-05T05:30:38;13.84;69.67
65876;HTU21D;52657;51.128;5.938;2023-01-05T05:33:04;13.82;69.60
65876;HTU21D;52657;51.128;5.938;2023-01-05T05:35:30;13.83;69.58
65876;HTU21D;52657;51.128;5.938;2023-01-05T05:37:56;13.91;69.34
65876;HTU21D;52657;51.128;5.938;2023-01-05T05:40:21;13.90;69.33
65876;HTU21D;52657;51.128;5.938;2023-01-05T05:42:47;13.90;69.33
65876;HTU21D;52657;51.128;5.938;2023-01-05T05:45:12;13.94;69.23
65876;HTU21D;52657;51.128;5.938;2023-01-05T05:47:38;13.94;69.26
65876;HTU21D;52657;51.128;5.938;2023-01-05T05:50:04;13.93;69.16
65876;HTU21D;52657;51.128;5.938;2023-01-05T05:52:30;13.93;69.11
65876;HTU21D;52657;51.128;5.938;2023-01-05T05:54:56;13.94;69.05
65876;HTU21D;52657;51.128;5.938;2023-01-05T05:57:21;13.95;68.97
65876;HTU21D;52657;51.128;5.938;2023-01-05T05:59:47;13.95;69.07
65876;HTU21D;52657;51.128;5.938;2023-01-05T06:02:13;13.91;68.97
65876;HTU21D;52657;51.128;5.938;2023-01-05T06:04:42;13.90;69.05
65876;HTU21D;52657;51.128;5.938;2023-01-05T06:07:12;13.93;69.00
65876;HTU21D;52657;51.128;5.938;2023-01-05T06:09:37;13.92;69.04
65876;HTU21D;52657;51.128;5.938;2023-01-05T06:12:03;13.94;68.85
65876;HTU21D;52657;51.128;5.938;2023-01-05T06:14:29;13.94;68.78
65876;HTU21D;52657;51.128;5.938;2023-01-05T06:16:55;13.94;68.68
65876;HTU21D;52657;51.128;5.938;2023-01-05T06:19:21;13.96;68.60
65876;HTU21D;52657;51.128;5.938;2023-01-05T06:21:46;13.96;68.58
65876;HTU21D;52657;51.128;5.938;2023-01-05T06:24:12;13.97;68.60
65876;HTU21D;52657;51.128;5.938;2023-01-05T06:26:38;13.95;68.55
65876;HTU21D;52657;51.128;5.938;2023-01-05T06:29:03;13.94;68.52
65876;HTU21D;52657;51.128;5.938;2023-01-05T06:31:29;13.91;68.51
65876;HTU21D;52657;51.128;5.938;2023-01-05T06:33:55;13.84;68.73
65876;HTU21D;52657;51.128;5.938;2023-01-05T06:36:20;13.83;68.78
65876;HTU21D;52657;51.128;5.938;2023-01-05T06:38:46;13.88;68.63
65876;HTU21D;52657;51.128;5.938;2023-01-05T06:41:12;13.90;68.50
65876;HTU21D;52657;51.128;5.938;2023-01-05T06:43:37;13.90;68.55
65876;HTU21D;52657;51.128;5.938;2023-01-05T06:46:03;13.90;68.51
65876;HTU21D;52657;51.128;5.938;2023-01-05T06:48:29;13.89;68.61
65876;HTU21D;52657;51.128;5.938;2023-01-05T06:50:55;13.89;68.55
65876;HTU21D;52657;51.128;5.938;2023-01-05T06:53:20;13.89;68.39
65876;HTU21D;52657;51.128;5.938;2023-01-05T06:55:46;13.88;68.50
65876;HTU21D;52657;51.128;5.938;2023-01-05T06:58:12;13.90;68.47
65876;HTU21D;52657;51.128;5.938;2023-01-05T07:00:37;13.90;68.41
65876;HTU21D;52657;51.128;5.938;2023-01-05T07:03:05;13.89;68.49
65876;HTU21D;52657;51.128;5.938;2023-01-05T07:05:31;13.91;68.35
65876;HTU21D;52657;51.128;5.938;2023-01-05T07:07:57;13.86;68.39
65876;HTU21D;52657;51.128;5.938;2023-01-05T07:10:23;13.86;68.44
65876;HTU21D;52657;51.128;5.938;2023-01-05T07:12:49;13.88;68.42
65876;HTU21D;52657;51.128;5.938;2023-01-05T07:15:15;13.90;68.40
65876;HTU21D;52657;51.128;5.938;2023-01-05T07:17:41;13.90;68.42
65876;HTU21D;52657;51.128;5.938;2023-01-05T07:20:07;13.90;68.35
65876;HTU21D;52657;51.128;5.938;2023-01-05T07:22:32;13.90;68.33
65876;HTU21D;52657;51.128;5.938;2023-01-05T07:24:58;13.88;68.36
65876;HTU21D;52657;51.128;5.938;2023-01-05T07:27:24;13.86;68.36
65876;HTU21D;52657;51.128;5.938;2023-01-05T07:29:50;13.85;68.39
65876;HTU21D;52657;51.128;5.938;2023-01-05T07:32:16;13.89;68.30
65876;HTU21D;52657;51.128;5.938;2023-01-05T07:34:41;13.93;68.20
65876;HTU21D;52657;51.128;5.938;2023-01-05T07:37:07;13.93;68.23
65876;HTU21D;52657;51.128;5.938;2023-01-05T07:39:33;13.94;68.17
65876;HTU21D;52657;51.128;5.938;2023-01-05T07:41:58;13.94;68.04
65876;HTU21D;52657;51.128;5.938;2023-01-05T07:44:25;13.96;67.98
65876;HTU21D;52657;51.128;5.938;2023-01-05T07:46:51;13.94;67.91
65876;HTU21D;52657;51.128;5.938;2023-01-05T07:49:16;13.91;67.99
65876;HTU21D;52657;51.128;5.938;2023-01-05T07:51:42;13.92;68.02
65876;HTU21D;52657;51.128;5.938;2023-01-05T07:54:08;13.94;67.89
65876;HTU21D;52657;51.128;5.938;2023-01-05T07:56:34;13.94;68.03
65876;HTU21D;52657;51.128;5.938;2023-01-05T07:58:59;13.88;68.21
65876;HTU21D;52657;51.128;5.938;2023-01-05T08:01:25;13.86;68.26
65876;HTU21D;52657;51.128;5.938;2023-01-05T08:03:51;13.86;68.32
65876;HTU21D;52657;51.128;5.938;2023-01-05T08:06:18;13.86;68.23
65876;HTU21D;52657;51.128;5.938;2023-01-05T08:08:45;13.89;68.17
65876;HTU21D;52657;51.128;5.938;2023-01-05T08:11:13;13.91;68.05
65876;HTU21D;52657;51.128;5.938;2023-01-05T08:13:43;13.89;68.10
65876;HTU21D;52657;51.128;5.938;2023-01-05T08:16:33;13.90;68.10
65876;HTU21D;52657;51.128;5.938;2023-01-05T08:21:34;13.93;68.09
65876;HTU21D;52657;51.128;5.938;2023-01-05T08:24:00;13.94;68.07
65876;HTU21D;52657;51.128;5.938;2023-01-05T08:26:25;13.93;68.09
65876;HTU21D;52657;51.128;5.938;2023-01-05T08:28:52;13.95;67.97
65876;HTU21D;52657;51.128;5.938;2023-01-05T08:31:27;13.97;68.02
65876;HTU21D;52657;51.128;5.938;2023-01-05T08:33:59;13.96;68.07
65876;HTU21D;52657;51.128;5.938;2023-01-05T08:36:47;13.98;67.93
65876;HTU21D;52657;51.128;5.938;2023-01-05T08:39:13;13.99;67.94
65876;HTU21D;52657;51.128;5.938;2023-01-05T08:41:47;14.04;67.88
65876;HTU21D;52657;51.128;5.938;2023-01-05T08:44:19;14.01;67.97
65876;HTU21D;52657;51.128;5.938;2023-01-05T08:46:50;13.98;67.92
65876;HTU21D;52657;51.128;5.938;2023-01-05T08:49:15;13.94;68.09
65876;HTU21D;52657;51.128;5.938;2023-01-05T08:51:41;13.94;68.07
65876;HTU21D;52657;51.128;5.938;2023-01-05T08:54:09;13.97;67.89
65876;HTU21D;52657;51.128;5.938;2023-01-05T08:56:35;13.95;67.94
65876;HTU21D;52657;51.128;5.938;2023-01-05T08:59:06;13.99;68.01
65876;HTU21D;52657;51.128;5.938;2023-01-05T09:01:36;14.03;67.74
65876;HTU21D;52657;51.128;5.938;2023-01-05T09:04:01;14.01;67.81
65876;HTU21D;52657;51.128;5.938;2023-01-05T09:06:27;14.03;67.92
65876;HTU21D;52657;51.128;5.938;2023-01-05T09:08:53;14.04;67.92
65876;HTU21D;52657;51.128;5.938;2023-01-05T09:13:51;14.08;67.75
65876;HTU21D;52657;51.128;5.938;2023-01-05T09:16:19;14.13;67.55
65876;HTU21D;52657;51.128;5.938;2023-01-05T09:18:47;14.14;67.34
65876;HTU21D;52657;51.128;5.938;2023-01-05T09:21:13;14.19;67.20
65876;HTU21D;52657;51.128;5.938;2023-01-05T09:23:39;14.23;67.19
65876;HTU21D;52657;51.128;5.938;2023-01-05T09:26:07;14.29;67.17
65876;HTU21D;52657;51.128;5.938;2023-01-05T09:28:34;14.36;67.17
65876;HTU21D;52657;51.128;5.938;2023-01-05T09:31:30;14.49;66.75
65876;HTU21D;52657;51.128;5.938;2023-01-05T09:33:57;14.50;66.43
65876;HTU21D;52657;51.128;5.938;2023-01-05T09:36:23;14.48;66.35
65876;HTU21D;52657;51.128;5.938;2023-01-05T09:38:52;14.44;66.42
65876;HTU21D;52657;51.128;5.938;2023-01-05T09:43:53;14.49;66.55
65876;HTU21D;52657;51.128;5.938;2023-01-05T09:46:29;14.52;66.41
65876;HTU21D;52657;51.128;5.938;2023-01-05T09:49:00;14.54;66.20
65876;HTU21D;52657;51.128;5.938;2023-01-05T09:51:28;14.53;66.18
65876;HTU21D;52657;51.128;5.938;2023-01-05T09:53:55;14.54;66.17
65876;HTU21D;52657;51.128;5.938;2023-01-05T10:01:39;14.65;65.90
65876;HTU21D;52657;51.128;5.938;2023-01-05T10:04:13;14.68;65.74
65876;HTU21D;52657;51.128;5.938;2023-01-05T10:06:51;14.75;65.67
65876;HTU21D;52657;51.128;5.938;2023-01-05T10:09:21;14.77;65.44
65876;HTU21D;52657;51.128;5.938;2023-01-05T10:12:14;14.84;65.24
65876;HTU21D;52657;51.128;5.938;2023-01-05T10:15:11;14.86;65.01
65876;HTU21D;52657;51.128;5.938;2023-01-05T10:17:39;14.85;65.04
65876;HTU21D;52657;51.128;5.938;2023-01-05T10:20:17;14.83;64.94
65876;HTU21D;52657;51.128;5.938;2023-01-05T10:23:05;14.85;65.06
65876;HTU21D;52657;51.128;5.938;2023-01-05T10:25:49;14.97;64.94
65876;HTU21D;52657;51.128;5.938;2023-01-05T10:28:28;15.03;64.62
65876;HTU21D;52657;51.128;5.938;2023-01-05T10:31:15;15.02;64.61
65876;HTU21D;52657;51.128;5.938;2023-01-05T10:33:52;15.02;64.37
65876;HTU21D;52657;51.128;5.938;2023-01-05T10:36:43;15.00;64.53
65876;HTU21D;52657;51.128;5.938;2023-01-05T10:42:04;15.03;64.50
65876;HTU21D;52657;51.128;5.938;2023-01-05T10:44:57;15.07;64.40
65876;HTU21D;52657;51.128;5.938;2023-01-05T10:47:30;15.08;64.36
65876;HTU21D;52657;51.128;5.938;2023-01-05T10:49:58;15.08;64.32
65876;HTU21D;52657;51.128;5.938;2023-01-05T10:52:25;15.07;64.21
65876;HTU21D;52657;51.128;5.938;2023-01-05T10:54:56;15.08;64.50
65876;HTU21D;52657;51.128;5.938;2023-01-05T11:02:40;15.17;64.33
65876;HTU21D;52657;51.128;5.938;2023-01-05T11:07:56;15.17;64.08
65876;HTU21D;52657;51.128;5.938;2023-01-05T11:10:49;15.16;64.04
65876;HTU21D;52657;51.128;5.938;2023-01-05T11:13:23;15.14;64.05
65876;HTU21D;52657;51.128;5.938;2023-01-05T11:16:16;15.17;64.08
65876;HTU21D;52657;51.128;5.938;2023-01-05T11:18:53;15.22;64.03
65876;HTU21D;52657;51.128;5.938;2023-01-05T11:21:24;15.27;63.89
65876;HTU21D;52657;51.128;5.938;2023-01-05T11:23:56;15.24;63.60
65876;HTU21D;52657;51.128;5.938;2023-01-05T11:26:35;15.25;63.49
65876;HTU21D;52657;51.128;5.938;2023-01-05T11:31:42;15.40;63.24
65876;HTU21D;52657;51.128;5.938;2023-01-05T11:34:25;15.47;63.08
65876;HTU21D;52657;51.128;5.938;2023-01-05T11:36:58;15.51;62.85
65876;HTU21D;52657;51.128;5.938;2023-01-05T11:39:28;15.48;62.48
65876;HTU21D;52657;51.128;5.938;2023-01-05T11:42:51;15.45;62.39
65876;HTU21D;52657;51.128;5.938;2023-01-05T11:47:35;15.33;62.62
65876;HTU21D;52657;51.128;5.938;2023-01-05T11:50:25;15.30;62.62
65876;HTU21D;52657;51.128;5.938;2023-01-05T11:53:00;15.28;62.80
65876;HTU21D;52657;51.128;5.938;2023-01-05T12:06:34;15.13;63.32
65876;HTU21D;52657;51.128;5.938;2023-01-05T12:17:12;15.04;63.11
65876;HTU21D;52657;51.128;5.938;2023-01-05T12:28:35;14.91;63.26
65876;HTU21D;52657;51.128;5.938;2023-01-05T12:31:46;14.93;63.24
65876;HTU21D;52657;51.128;5.938;2023-01-05T12:37:38;14.80;63.50
65876;HTU21D;52657;51.128;5.938;2023-01-05T12:48:33;14.65;64.46
65876;HTU21D;52657;51.128;5.938;2023-01-05T12:51:13;14.70;64.44
65876;HTU21D;52657;51.128;5.938;2023-01-05T12:53:53;14.73;64.40
65876;HTU21D;52657;51.128;5.938;2023-01-05T12:56:29;14.77;64.40
65876;HTU21D;52657;51.128;5.938;2023-01-05T13:02:06;14.87;64.45
65876;HTU21D;52657;51.128;5.938;2023-01-05T13:05:58;14.88;64.53
65876;HTU21D;52657;51.128;5.938;2023-01-05T13:11:29;15.01;64.68
65876;HTU21D;52657;51.128;5.938;2023-01-05T13:14:05;15.01;64.47
65876;HTU21D;52657;51.128;5.938;2023-01-05T13:16:41;15.03;64.57
65876;HTU21D;52657;51.128;5.938;2023-01-05T13:19:34;15.09;64.37
65876;HTU21D;52657;51.128;5.938;2023-01-05T13:22:07;15.08;64.27
65876;HTU21D;52657;51.128;5.938;2023-01-05T13:24:50;15.07;64.66
65876;HTU21D;52657;51.128;5.938;2023-01-05T13:27:16;15.11;64.48
65876;HTU21D;52657;51.128;5.938;2023-01-05T13:29:49;15.15;64.44
65876;HTU21D;52657;51.128;5.938;2023-01-05T13:35:21;15.19;64.34
65876;HTU21D;52657;51.128;5.938;2023-01-05T13:38:17;15.18;64.35
65876;HTU21D;52657;51.128;5.938;2023-01-05T13:50:06;15.31;64.09
65876;HTU21D;52657;51.128;5.938;2023-01-05T13:53:20;15.30;63.82
65876;HTU21D;52657;51.128;5.938;2023-01-05T13:56:00;15.26;63.50
65876;HTU21D;52657;51.128;5.938;2023-01-05T13:58:44;15.25;63.80
65876;HTU21D;52657;51.128;5.938;2023-01-05T14:01:32;15.26;63.77
65876;HTU21D;52657;51.128;5.938;2023-01-05T14:03:59;15.28;63.54
65876;HTU21D;52657;51.128;5.938;2023-01-05T14:06:32;15.36;63.67
65876;HTU21D;52657;51.128;5.938;2023-01-05T14:09:07;15.39;63.40
65876;HTU21D;52657;51.128;5.938;2023-01-05T14:11:37;15.38;62.92
65876;HTU21D;52657;51.128;5.938;2023-01-05T14:14:26;15.38;63.05
65876;HTU21D;52657;51.128;5.938;2023-01-05T14:16:54;15.39;62.98
65876;HTU21D;52657;51.128;5.938;2023-01-05T14:22:03;15.32;63.05
65876;HTU21D;52657;51.128;5.938;2023-01-05T14:24:39;15.30;63.02
65876;HTU21D;52657;51.128;5.938;2023-01-05T14:27:09;15.29;63.13
65876;HTU21D;52657;51.128;5.938;2023-01-05T14:32:36;15.25;63.21
65876;HTU21D;52657;51.128;5.938;2023-01-05T14:35:18;15.27;63.24
65876;HTU21D;52657;51.128;5.938;2023-01-05T14:38:01;15.30;63.14
65876;HTU21D;52657;51.128;5.938;2023-01-05T14:40:57;15.28;63.22
65876;HTU21D;52657;51.128;5.938;2023-01-05T14:43:32;15.28;63.38
65876;HTU21D;52657;51.128;5.938;2023-01-05T14:46:09;15.21;63.48
65876;HTU21D;52657;51.128;5.938;2023-01-05T14:51:12;15.14;63.42
65876;HTU21D;52657;51.128;5.938;2023-01-05T14:53:45;15.14;63.40
65876;HTU21D;52657;51.128;5.938;2023-01-05T14:56:18;15.11;63.53
65876;HTU21D;52657;51.128;5.938;2023-01-05T15:01:17;15.11;63.73
65876;HTU21D;52657;51.128;5.938;2023-01-05T15:09:33;15.10;63.66
65876;HTU21D;52657;51.128;5.938;2023-01-05T15:32:42;14.67;66.21
65876;HTU21D;52657;51.128;5.938;2023-01-05T15:35:18;14.65;66.68
65876;HTU21D;52657;51.128;5.938;2023-01-05T15:37:45;14.64;67.04
65876;HTU21D;52657;51.128;5.938;2023-01-05T15:42:55;14.56;67.97
65876;HTU21D;52657;51.128;5.938;2023-01-05T15:45:29;14.51;68.33
65876;HTU21D;52657;51.128;5.938;2023-01-05T15:47:57;14.47;68.81
65876;HTU21D;52657;51.128;5.938;2023-01-05T15:50:35;14.43;69.37
65876;HTU21D;52657;51.128;5.938;2023-01-05T15:53:01;14.42;69.68
65876;HTU21D;52657;51.128;5.938;2023-01-05T15:55:28;14.38;70.06
65876;HTU21D;52657;51.128;5.938;2023-01-05T15:57:58;14.36;70.32
65876;HTU21D;52657;51.128;5.938;2023-01-05T16:00:26;14.29;70.93
65876;HTU21D;52657;51.128;5.938;2023-01-05T16:02:52;14.22;71.16
65876;HTU21D;52657;51.128;5.938;2023-01-05T16:05:27;14.17;71.70
65876;HTU21D;52657;51.128;5.938;2023-01-05T16:07:59;14.14;71.96
65876;HTU21D;52657;51.128;5.938;2023-01-05T16:13:11;14.24;72.27
65876;HTU21D;52657;51.128;5.938;2023-01-05T16:15:42;14.25;72.39
65876;HTU21D;52657;51.128;5.938;2023-01-05T16:18:19;14.24;72.51
65876;HTU21D;52657;51.128;5.938;2023-01-05T16:20:48;14.18;72.68
65876;HTU21D;52657;51.128;5.938;2023-01-05T16:23:43;14.13;73.15
65876;HTU21D;52657;51.128;5.938;2023-01-05T16:26:16;14.13;73.41
65876;HTU21D;52657;51.128;5.938;2023-01-05T16:28:44;14.19;73.48
65876;HTU21D;52657;51.128;5.938;2023-01-05T16:31:33;14.26;73.29
65876;HTU21D;52657;51.128;5.938;2023-01-05T16:34:17;14.26;73.25
65876;HTU21D;52657;51.128;5.938;2023-01-05T16:37:16;14.23;73.56
65876;HTU21D;52657;51.128;5.938;2023-01-05T16:39:44;14.26;73.64
65876;HTU21D;52657;51.128;5.938;2023-01-05T16:42:17;14.25;73.66
65876;HTU21D;52657;51.128;5.938;2023-01-05T16:45:07;14.27;73.72
65876;HTU21D;52657;51.128;5.938;2023-01-05T16:47:36;14.19;74.02
65876;HTU21D;52657;51.128;5.938;2023-01-05T16:53:09;14.26;74.74
65876;HTU21D;52657;51.128;5.938;2023-01-05T16:55:37;14.25;74.90
65876;HTU21D;52657;51.128;5.938;2023-01-05T17:03:41;14.44;76.44
65876;HTU21D;52657;51.128;5.938;2023-01-05T17:08:44;14.51;75.57
65876;HTU21D;52657;51.128;5.938;2023-01-05T17:11:11;14.51;74.95
65876;HTU21D;52657;51.128;5.938;2023-01-05T17:13:57;14.47;74.60
65876;HTU21D;52657;51.128;5.938;2023-01-05T17:16:25;14.48;74.89
65876;HTU21D;52657;51.128;5.938;2023-01-05T17:18:52;14.51;74.83
65876;HTU21D;52657;51.128;5.938;2023-01-05T17:21:22;14.48;74.44
65876;HTU21D;52657;51.128;5.938;2023-01-05T17:23:51;14.47;74.41
65876;HTU21D;52657;51.128;5.938;2023-01-05T17:26:22;14.49;74.23
65876;HTU21D;52657;51.128;5.938;2023-01-05T17:28:48;14.47;74.18
65876;HTU21D;52657;51.128;5.938;2023-01-05T17:31:14;14.47;74.28
65876;HTU21D;52657;51.128;5.938;2023-01-05T17:33:39;14.45;74.25
65876;HTU21D;52657;51.128;5.938;2023-01-05T17:36:06;14.36;74.46
65876;HTU21D;52657;51.128;5.938;2023-01-05T17:38:32;14.34;74.76
65876;HTU21D;52657;51.128;5.938;2023-01-05T17:40:57;14.34;74.87
65876;HTU21D;52657;51.128;5.938;2023-01-05T17:43:25;14.35;74.88
65876;HTU21D;52657;51.128;5.938;2023-01-05T17:45:51;14.33;75.05
65876;HTU21D;52657;51.128;5.938;2023-01-05T17:48:17;14.33;75.09
65876;HTU21D;52657;51.128;5.938;2023-01-05T17:50:43;14.39;75.01
65876;HTU21D;52657;51.128;5.938;2023-01-05T17:53:09;14.43;74.84
65876;HTU21D;52657;51.128;5.938;2023-01-05T17:55:35;14.41;74.78
65876;HTU21D;52657;51.128;5.938;2023-01-05T17:58:01;14.37;74.99
65876;HTU21D;52657;51.128;5.938;2023-01-05T18:00:29;14.33;75.34
65876;HTU21D;52657;51.128;5.938;2023-01-05T18:02:57;14.36;75.44
65876;HTU21D;52657;51.128;5.938;2023-01-05T18:05:26;14.37;75.38
65876;HTU21D;52657;51.128;5.938;2023-01-05T18:07:53;14.36;75.45
65876;HTU21D;52657;51.128;5.938;2023-01-05T18:10:21;14.43;75.35
65876;HTU21D;52657;51.128;5.938;2023-01-05T18:12:47;14.40;75.41
65876;HTU21D;52657;51.128;5.938;2023-01-05T18:15:14;14.34;75.83
65876;HTU21D;52657;51.128;5.938;2023-01-05T18:17:40;14.28;76.12
65876;HTU21D;52657;51.128;5.938;2023-01-05T18:20:09;14.21;76.50
65876;HTU21D;52657;51.128;5.938;2023-01-05T18:22:37;14.19;76.95
65876;HTU21D;52657;51.128;5.938;2023-01-05T18:25:03;14.20;77.14
65876;HTU21D;52657;51.128;5.938;2023-01-05T18:27:29;14.22;77.22